Regen, Gewitter möglich
Regen, Gewitter möglich
Regen, Gewitter möglich
Regen, Gewitter möglich
Regen, Gewitter möglich
Regen, Gewitter möglich
Bedeckt
(°C)
24°
24°
24°
24°
24°
24°
24°
24°
24°
24°
24°
24°
24°
24°
(°C)
27°
27°
27°
27°
27°
27°
27°
SSW
SSW
SSW
SSW
SW
SW
SW
(km/h)
16-28
16-29
16-28
16-26
15-28
15-29
15-28
(mm)
2.8
3.5
3.4
3.2
3.4
3.3
0
(%)
59
59
59
59
59
59
39

Sonnenhöhe

/ -78.7°
sun-icon
UV 8
06:19
18:21
Zunehmender Mond (120°)
14:47
02:14

METAR für Mombasa (HKMO)

Zeit Bedingungen Temperatur/
Taupunkt
Wind Sichtweite Wetter Wolken Druck Änderung Roh
VFR 25°C / 24°C 210º 5kt 9700m - Scattered Clouds 1800ft 1013 No Significant change HKMO 181830Z 21005KT 9999 SCT018 25/24 Q1013 NOSIG
VFR 25°C / 24°C 190º 6kt 9700m Light Rain 1.00mm precipitation Scattered Clouds 1800ft 1012 No Significant change HKMO 181800Z 19006KT 9999 -RA SCT018 25/24 Q1012 NOSIG
MVFR 25°C / 24°C 200º 6kt 8000m Light Rain 1.00mm precipitation Broken Clouds 1800ft
Overcast 8000ft
1012 No Significant change HKMO 181730Z 20006KT 8000 -RA BKN018 OVC080 25/24 Q1012 NOSIG
MVFR 25°C / 24°C 210º 7kt 8000m Light Rain 1.00mm precipitation Broken Clouds 1900ft
Overcast 8000ft
1012 No Significant change HKMO 181700Z 21007KT 8000 -RA BKN019 OVC080 25/24 Q1012 NOSIG
MVFR 25°C / 24°C 180º 8kt 8000m Light Rain 1.00mm precipitation Broken Clouds 1900ft
Overcast 8000ft
1012 No Significant change HKMO 181630Z 18008KT 8000 -RA BKN019 OVC080 25/24 Q1012 NOSIG
MVFR 24°C / 23°C 130º 3kt 8000m Rain 3.00mm precipitation Broken Clouds 1900ft
Overcast 8000ft
1012 No Significant change HKMO 181600Z 13003KT 8000 RA BKN019 OVC080 24/23 Q1012 NOSIG
MVFR 24°C / 23°C 130º 8kt 8000m Showers Rain 3.00mm precipitation Broken Clouds 1900ft
Overcast 8000ft
1011 No Significant change HKMO 181530Z 13008KT 8000 SHRA BKN019 OVC080 24/23 Q1011 NOSIG
VFR 25°C / 23°C 220º 3kt 9700m - Scattered Clouds 2000ft
Broken Clouds 8000ft
1011 No Significant change HKMO 181500Z 22003KT 9999 SCT020 BKN080 25/23 Q1011 NOSIG
VFR 25°C / 23°C 220º 4kt 9700m Light Rain 1.00mm precipitation Few Clouds 2000ft
Broken Clouds 8000ft
1011 No Significant change HKMO 181430Z 22004KT 9999 -RA FEW020 BKN080 25/23 Q1011 NOSIG
VFR 25°C / 24°C 250º 3kt 9700m Light Rain 1.00mm precipitation Few Clouds 2000ft
Broken Clouds 8000ft
1010 No Significant change HKMO 181400Z 25003KT 9999 -RA FEW020 BKN080 25/24 Q1010 NOSIG
VFR 25°C / 23°C 240º 4kt 9700m Light Rain 1.00mm precipitation Scattered Clouds 1800ft
Broken Clouds 8000ft
1011 No Significant change HKMO 181330Z 24004KT 9999 -RA SCT018 BKN080 25/23 Q1011 NOSIG
MVFR 24°C / 23°C 250º 3kt 7000m Light Rain 1.00mm precipitation Scattered Clouds 1800ft
Broken Clouds 8000ft
1010 No Significant change HKMO 181300Z 25003KT 7000 -RA SCT018 BKN080 24/23 Q1010 NOSIG
MVFR 24°C / 23°C 220º 6kt 7000m Light Rain 1.00mm precipitation Broken Clouds 1700ft
Broken Clouds 7000ft
1010 No Significant change HKMO 181230Z 22006KT 7000 -RA BKN017 BKN070 24/23 Q1010 NOSIG
MVFR 24°C / 23°C 220º 6kt 7000m Rain 3.00mm precipitation Broken Clouds 1700ft
Broken Clouds 7000ft
1011 No Significant change HKMO 181200Z 22006KT 7000 RA BKN017 BKN070 24/23 Q1011 NOSIG
MVFR 24°C / 23°C 200º 7kt 7000m Light Showers Rain 3.00mm precipitation Few Clouds 1700ft
Broken Clouds 1800ft
Broken Clouds 7000ft
1011 No Significant change HKMO 181130Z 20007KT 7000 -SHRA FEW017CB BKN018 BKN070 24/23 Q1011 NOSIG
MVFR 24°C / 23°C 190º 10kt 8000m Light Showers Rain 3.00mm precipitation Few Clouds 2200ft
Broken Clouds 2300ft
Broken Clouds 8000ft
1012 No Significant change HKMO 181100Z 19010KT 8000 -SHRA FEW022CB BKN023 BKN080 24/23 Q1012 NOSIG
MVFR 25°C / 23°C 180º 16kt 8000m Light Showers Rain 3.00mm precipitation Broken Clouds 2300ft
Broken Clouds 8000ft
1012 No Significant change HKMO 181030Z 18016KT 8000 -SHRA BKN023 BKN080 25/23 Q1012 NOSIG
MVFR 28°C / 25°C 180º 11kt 9000m Light Showers Rain 3.00mm precipitation Broken Clouds 2500ft 1012 No Significant change HKMO 181000Z 18011KT 9000 -SHRA BKN025 28/25 Q1012 NOSIG
MVFR 30°C / 24°C 180º 12kt 9700m - Broken Clouds 2500ft 1012 No Significant change HKMO 180930Z 18012KT 9999 BKN025 30/24 Q1012 NOSIG
MVFR 30°C / 24°C 200º 13kt 9700m - Broken Clouds 2500ft 1013 No Significant change HKMO 180900Z 20013KT 9999 BKN025 30/24 Q1013 NOSIG
VFR 28°C / 24°C 190º 14kt 9000m Light Showers Rain 3.00mm precipitation Scattered Clouds 2400ft
Broken Clouds 8000ft
1013 No Significant change HKMO 180830Z 19014KT 9000 -SHRA SCT024 BKN080 28/24 Q1013 NOSIG
VFR 30°C / 24°C 200º 14kt 9700m - Scattered Clouds 2500ft
Broken Clouds 8000ft
1013 No Significant change HKMO 180800Z 20014KT 9999 SCT025 BKN080 30/24 Q1013 NOSIG
VFR 30°C / 24°C 200º 12kt 9700m - Few Clouds 2500ft
Broken Clouds 8000ft
1013 No Significant change HKMO 180730Z 20012KT 9999 FEW025 BKN080 30/24 Q1013 NOSIG
VFR 29°C / 23°C 190º 13kt 9700m - Few Clouds 2400ft
Broken Clouds 8000ft
1014 No Significant change HKMO 180700Z 19013KT 9999 FEW024 BKN080 29/23 Q1014 NOSIG

VFR

25°C / 24°C

[Mehr]
Wind 210º 5kt
Sichtweite 9700m
Wetter -
Wolken Scattered Clouds 1800ft
Druck 1013
Änderung No Significant change
Roh HKMO 181830Z 21005KT 9999 SCT018 25/24 Q1013 NOSIG

VFR

25°C / 24°C

[Mehr]
Wind 190º 6kt
Sichtweite 9700m
Wetter Light Rain 1.00mm precipitation
Wolken Scattered Clouds 1800ft
Druck 1012
Änderung No Significant change
Roh HKMO 181800Z 19006KT 9999 -RA SCT018 25/24 Q1012 NOSIG

MVFR

25°C / 24°C

[Mehr]
Wind 200º 6kt
Sichtweite 8000m
Wetter Light Rain 1.00mm precipitation
Wolken Broken Clouds 1800ft
Overcast 8000ft
Druck 1012
Änderung No Significant change
Roh HKMO 181730Z 20006KT 8000 -RA BKN018 OVC080 25/24 Q1012 NOSIG

MVFR

25°C / 24°C

[Mehr]
Wind 210º 7kt
Sichtweite 8000m
Wetter Light Rain 1.00mm precipitation
Wolken Broken Clouds 1900ft
Overcast 8000ft
Druck 1012
Änderung No Significant change
Roh HKMO 181700Z 21007KT 8000 -RA BKN019 OVC080 25/24 Q1012 NOSIG

MVFR

25°C / 24°C

[Mehr]
Wind 180º 8kt
Sichtweite 8000m
Wetter Light Rain 1.00mm precipitation
Wolken Broken Clouds 1900ft
Overcast 8000ft
Druck 1012
Änderung No Significant change
Roh HKMO 181630Z 18008KT 8000 -RA BKN019 OVC080 25/24 Q1012 NOSIG

MVFR

24°C / 23°C

[Mehr]
Wind 130º 3kt
Sichtweite 8000m
Wetter Rain 3.00mm precipitation
Wolken Broken Clouds 1900ft
Overcast 8000ft
Druck 1012
Änderung No Significant change
Roh HKMO 181600Z 13003KT 8000 RA BKN019 OVC080 24/23 Q1012 NOSIG

MVFR

24°C / 23°C

[Mehr]
Wind 130º 8kt
Sichtweite 8000m
Wetter Showers Rain 3.00mm precipitation
Wolken Broken Clouds 1900ft
Overcast 8000ft
Druck 1011
Änderung No Significant change
Roh HKMO 181530Z 13008KT 8000 SHRA BKN019 OVC080 24/23 Q1011 NOSIG

VFR

25°C / 23°C

[Mehr]
Wind 220º 3kt
Sichtweite 9700m
Wetter -
Wolken Scattered Clouds 2000ft
Broken Clouds 8000ft
Druck 1011
Änderung No Significant change
Roh HKMO 181500Z 22003KT 9999 SCT020 BKN080 25/23 Q1011 NOSIG

VFR

25°C / 23°C

[Mehr]
Wind 220º 4kt
Sichtweite 9700m
Wetter Light Rain 1.00mm precipitation
Wolken Few Clouds 2000ft
Broken Clouds 8000ft
Druck 1011
Änderung No Significant change
Roh HKMO 181430Z 22004KT 9999 -RA FEW020 BKN080 25/23 Q1011 NOSIG

VFR

25°C / 24°C

[Mehr]
Wind 250º 3kt
Sichtweite 9700m
Wetter Light Rain 1.00mm precipitation
Wolken Few Clouds 2000ft
Broken Clouds 8000ft
Druck 1010
Änderung No Significant change
Roh HKMO 181400Z 25003KT 9999 -RA FEW020 BKN080 25/24 Q1010 NOSIG

VFR

25°C / 23°C

[Mehr]
Wind 240º 4kt
Sichtweite 9700m
Wetter Light Rain 1.00mm precipitation
Wolken Scattered Clouds 1800ft
Broken Clouds 8000ft
Druck 1011
Änderung No Significant change
Roh HKMO 181330Z 24004KT 9999 -RA SCT018 BKN080 25/23 Q1011 NOSIG

MVFR

24°C / 23°C

[Mehr]
Wind 250º 3kt
Sichtweite 7000m
Wetter Light Rain 1.00mm precipitation
Wolken Scattered Clouds 1800ft
Broken Clouds 8000ft
Druck 1010
Änderung No Significant change
Roh HKMO 181300Z 25003KT 7000 -RA SCT018 BKN080 24/23 Q1010 NOSIG

MVFR

24°C / 23°C

[Mehr]
Wind 220º 6kt
Sichtweite 7000m
Wetter Light Rain 1.00mm precipitation
Wolken Broken Clouds 1700ft
Broken Clouds 7000ft
Druck 1010
Änderung No Significant change
Roh HKMO 181230Z 22006KT 7000 -RA BKN017 BKN070 24/23 Q1010 NOSIG

MVFR

24°C / 23°C

[Mehr]
Wind 220º 6kt
Sichtweite 7000m
Wetter Rain 3.00mm precipitation
Wolken Broken Clouds 1700ft
Broken Clouds 7000ft
Druck 1011
Änderung No Significant change
Roh HKMO 181200Z 22006KT 7000 RA BKN017 BKN070 24/23 Q1011 NOSIG

MVFR

24°C / 23°C

[Mehr]
Wind 200º 7kt
Sichtweite 7000m
Wetter Light Showers Rain 3.00mm precipitation
Wolken Few Clouds 1700ft
Broken Clouds 1800ft
Broken Clouds 7000ft
Druck 1011
Änderung No Significant change
Roh HKMO 181130Z 20007KT 7000 -SHRA FEW017CB BKN018 BKN070 24/23 Q1011 NOSIG

MVFR

24°C / 23°C

[Mehr]
Wind 190º 10kt
Sichtweite 8000m
Wetter Light Showers Rain 3.00mm precipitation
Wolken Few Clouds 2200ft
Broken Clouds 2300ft
Broken Clouds 8000ft
Druck 1012
Änderung No Significant change
Roh HKMO 181100Z 19010KT 8000 -SHRA FEW022CB BKN023 BKN080 24/23 Q1012 NOSIG

MVFR

25°C / 23°C

[Mehr]
Wind 180º 16kt
Sichtweite 8000m
Wetter Light Showers Rain 3.00mm precipitation
Wolken Broken Clouds 2300ft
Broken Clouds 8000ft
Druck 1012
Änderung No Significant change
Roh HKMO 181030Z 18016KT 8000 -SHRA BKN023 BKN080 25/23 Q1012 NOSIG

MVFR

28°C / 25°C

[Mehr]
Wind 180º 11kt
Sichtweite 9000m
Wetter Light Showers Rain 3.00mm precipitation
Wolken Broken Clouds 2500ft
Druck 1012
Änderung No Significant change
Roh HKMO 181000Z 18011KT 9000 -SHRA BKN025 28/25 Q1012 NOSIG

MVFR

30°C / 24°C

[Mehr]
Wind 180º 12kt
Sichtweite 9700m
Wetter -
Wolken Broken Clouds 2500ft
Druck 1012
Änderung No Significant change
Roh HKMO 180930Z 18012KT 9999 BKN025 30/24 Q1012 NOSIG

MVFR

30°C / 24°C

[Mehr]
Wind 200º 13kt
Sichtweite 9700m
Wetter -
Wolken Broken Clouds 2500ft
Druck 1013
Änderung No Significant change
Roh HKMO 180900Z 20013KT 9999 BKN025 30/24 Q1013 NOSIG

VFR

28°C / 24°C

[Mehr]
Wind 190º 14kt
Sichtweite 9000m
Wetter Light Showers Rain 3.00mm precipitation
Wolken Scattered Clouds 2400ft
Broken Clouds 8000ft
Druck 1013
Änderung No Significant change
Roh HKMO 180830Z 19014KT 9000 -SHRA SCT024 BKN080 28/24 Q1013 NOSIG

VFR

30°C / 24°C

[Mehr]
Wind 200º 14kt
Sichtweite 9700m
Wetter -
Wolken Scattered Clouds 2500ft
Broken Clouds 8000ft
Druck 1013
Änderung No Significant change
Roh HKMO 180800Z 20014KT 9999 SCT025 BKN080 30/24 Q1013 NOSIG

VFR

30°C / 24°C

[Mehr]
Wind 200º 12kt
Sichtweite 9700m
Wetter -
Wolken Few Clouds 2500ft
Broken Clouds 8000ft
Druck 1013
Änderung No Significant change
Roh HKMO 180730Z 20012KT 9999 FEW025 BKN080 30/24 Q1013 NOSIG

VFR

29°C / 23°C

[Mehr]
Wind 190º 13kt
Sichtweite 9700m
Wetter -
Wolken Few Clouds 2400ft
Broken Clouds 8000ft
Druck 1014
Änderung No Significant change
Roh HKMO 180700Z 19013KT 9999 FEW024 BKN080 29/23 Q1014 NOSIG

TAF für Mombasa (HKMO)

From till


From till Wind 200º 10kt. Visibility 9700m. Light Rain . Broken Clouds 1900ft. Overcast 8000ft.
Becoming from till

Roh: TAF COR HKMO 181700Z 1818/1924 20010KT 9999 -RA BKN019 OVC080 BECMG 1915/1918 NSW FEW023 BKN080

Radar für Mombasa

Nieselregen
Leicht
Moderat
Stark
Sehr schwer
Hagel

Die Ortsmarkierung zeigt auf Mombasa. Orange Kreuze zeigen Blitze an. Daten bereitgestellt von nowcast.de (verfügbar in den USA, Europa, Australien). Nieselregen oder leichter Schneefall können für den Radar unsichtbar sein. Die Niederschlagsintensität ist farbcodiert und reicht von hellblau bis rot.

Aktuelle Satelliten- und Regenbilder für Mombasa, Kenia

Die Standortmarkierung ist platziert auf Mombasa. [Mehr]

Das Echtzeit-Satellitenbild kombiniert sichtbares Licht während des Tages mit Infrarotstrahlung während der Nacht. Nachts ist das Bild nicht dunkel, da Infrarotstrahlung Temperaturunterschiede erkennen kann. Leider sind niedrige Wolken und Nebel nur schwer von den Bodentemperaturen zu unterscheiden und können daher nachts fast unsichtbar sein. Meteosat-Satellitenbilder für Europa werden alle 5 Minuten in Echtzeit aktualisiert. Die Bilder GOES-16 / GOES-17 (Nord- und Südamerika) und Himawari (Asien) werden alle 10 Minuten aktualisiert.

Niederschläge werden von Radar und Satelliten berechnet. Nachts sind die Niederschlagsberechnungen durch die Satelliten weniger genau als tagsüber.

© 2024 meteoblue, NOAA Satellites GOES-16 and EUMETSAT. Blitzdaten zur Verfügung gestellt von nowcast.

Zum Anfang
×
Hallo,
es scheint, als würden Sie einen Werbeblocker benutzen.

Werbung ist unerlässlich, um unsere kostenlose Website mit einzigartiger Detailtreue und Genauigkeit zu pflegen.

Bitte setzen Sie www.meteoblue.com auf die Whitelist Ihres Werbeblockers oder erwägen Sie den Kauf eines unserer Produkte:

Sie haben bereits ein Abonnement?
Dann melden Sie sich bitte an.